Time;durP1;ratioP1;P1;durP2;ratioP2;P2;SDS_P1;SDS_P2;PMS_P1;PMS_P2;Temp;Humidity;BMP_temperature;BMP_pressure;BME280_temperature;BME280_humidity;BME280_pressure;Samples;Min_cycle;Max_cycle;Signal;HPM_P1;HPM_P2
2024/02/16 00:00:56;;;;;;;0.40;0.40;;;10.10;99.90;;;;;;4410406;32;21099;-57
2024/02/16 00:03:22;;;;;;;1.40;1.20;;;10.00;99.90;;;;;;4415150;32;20065;-58
2024/02/16 00:05:47;;;;;;;1.40;1.30;;;10.10;99.90;;;;;;4413553;32;20534;-57
2024/02/16 00:08:13;;;;;;;0.82;0.77;;;10.00;99.90;;;;;;4413084;32;20456;-57
2024/02/16 00:10:39;;;;;;;0.88;0.73;;;10.00;99.90;;;;;;4417308;32;20074;-57
2024/02/16 00:13:04;;;;;;;2.35;0.60;;;10.00;99.90;;;;;;4414174;32;20391;-57
2024/02/16 00:15:30;;;;;;;0.60;0.60;;;10.00;99.90;;;;;;4415509;32;20081;-56
2024/02/16 00:17:55;;;;;;;0.52;0.52;;;10.00;99.90;;;;;;4417509;32;20119;-58
2024/02/16 00:20:22;;;;;;;0.65;0.65;;;10.00;99.90;;;;;;4412417;32;20402;-57
2024/02/16 00:22:47;;;;;;;0.88;0.82;;;10.00;99.90;;;;;;4416153;32;20078;-58
2024/02/16 00:25:13;;;;;;;0.52;0.52;;;10.00;99.90;;;;;;4419147;32;20078;-61
2024/02/16 00:27:40;;;;;;;0.50;0.50;;;10.00;99.90;;;;;;4413423;32;20089;-57
2024/02/16 00:30:07;;;;;;;0.45;0.45;;;10.00;99.90;;;;;;4412660;32;20434;-58
2024/02/16 00:32:32;;;;;;;0.95;0.95;;;10.00;99.90;;;;;;4414142;32;20081;-58
2024/02/16 00:34:58;;;;;;;0.75;0.75;;;10.00;99.90;;;;;;4419090;32;20065;-58
2024/02/16 00:37:24;;;;;;;0.60;0.60;;;9.90;99.90;;;;;;4415916;32;20090;-57
2024/02/16 00:39:50;;;;;;;1.05;0.98;;;9.90;99.90;;;;;;4414571;32;20057;-55
2024/02/16 00:42:15;;;;;;;0.60;0.60;;;9.90;99.90;;;;;;4415471;32;20061;-57
2024/02/16 00:44:40;;;;;;;3.00;1.33;;;9.90;99.90;;;;;;4413416;32;20081;-57
2024/02/16 00:47:06;;;;;;;4.40;1.35;;;9.90;99.90;;;;;;4413615;32;20066;-58
2024/02/16 00:49:32;;;;;;;0.95;0.60;;;9.90;99.90;;;;;;4414920;32;20077;-57
2024/02/16 00:51:58;;;;;;;0.70;0.70;;;9.80;99.90;;;;;;4423638;32;20660;-57
2024/02/16 00:54:23;;;;;;;3.35;0.90;;;9.90;99.90;;;;;;4429244;32;20065;-57
2024/02/16 00:56:49;;;;;;;0.68;0.68;;;9.80;99.90;;;;;;4423456;32;20065;-60
2024/02/16 00:59:14;;;;;;;1.12;0.88;;;9.80;99.90;;;;;;4412519;32;20081;-58
2024/02/16 01:01:40;;;;;;;0.98;0.90;;;9.90;99.90;;;;;;4426293;32;20104;-57
2024/02/16 01:04:06;;;;;;;0.60;0.60;;;9.90;99.90;;;;;;4429108;32;20100;-57
2024/02/16 01:06:32;;;;;;;1.95;1.45;;;9.90;99.90;;;;;;4417709;32;20159;-58
2024/02/16 01:08:58;;;;;;;0.60;0.60;;;9.90;99.90;;;;;;4425932;32;20093;-59
2024/02/16 01:11:23;;;;;;;0.80;0.80;;;9.90;99.90;;;;;;4424152;32;20425;-58
2024/02/16 01:13:49;;;;;;;0.57;0.57;;;10.00;99.90;;;;;;4425085;32;20081;-58
2024/02/16 01:16:17;;;;;;;1.30;1.20;;;9.90;99.90;;;;;;4429227;32;20061;-58
2024/02/16 01:18:44;;;;;;;0.47;0.47;;;9.90;99.90;;;;;;4428401;32;20066;-59
2024/02/16 01:21:10;;;;;;;0.77;0.70;;;9.90;99.90;;;;;;4431794;32;20464;-61
2024/02/16 01:23:35;;;;;;;2.55;1.10;;;9.90;99.90;;;;;;4431281;32;20065;-58
2024/02/16 01:26:01;;;;;;;2.60;1.08;;;9.80;99.90;;;;;;4430659;32;20057;-60
2024/02/16 01:28:26;;;;;;;0.80;0.80;;;9.80;99.90;;;;;;4418118;32;20085;-59
2024/02/16 01:30:52;;;;;;;0.60;0.57;;;9.90;99.90;;;;;;4430421;32;20058;-59
2024/02/16 01:33:19;;;;;;;0.55;0.55;;;9.90;99.90;;;;;;4429593;32;20529;-58
2024/02/16 01:35:45;;;;;;;2.15;0.50;;;9.90;99.90;;;;;;4405611;32;20115;-58
2024/02/16 01:38:11;;;;;;;1.45;0.95;;;9.90;99.90;;;;;;4429998;32;20139;-59
2024/02/16 01:40:36;;;;;;;0.62;0.62;;;9.90;99.90;;;;;;4420086;32;20122;-58
2024/02/16 01:43:02;;;;;;;1.42;1.25;;;9.90;99.90;;;;;;4419706;32;20517;-59
2024/02/16 01:45:28;;;;;;;0.65;0.65;;;9.80;99.90;;;;;;4430807;32;20064;-58
2024/02/16 01:47:54;;;;;;;0.60;0.57;;;9.80;99.90;;;;;;4420885;32;20068;-58
2024/02/16 01:50:21;;;;;;;1.75;0.95;;;9.80;99.90;;;;;;4430586;32;20485;-59
2024/02/16 01:52:48;;;;;;;0.50;0.50;;;9.80;99.90;;;;;;4430882;32;20544;-63
2024/02/16 01:55:15;;;;;;;0.85;0.77;;;9.80;99.90;;;;;;4418846;32;20077;-59
2024/02/16 01:57:43;;;;;;;1.90;1.20;;;9.70;99.90;;;;;;4427049;32;20557;-59
2024/02/16 02:02:36;;;;;;;4.32;0.62;;;9.70;99.90;;;;;;4427246;32;20120;-59
2024/02/16 02:05:02;;;;;;;2.50;1.20;;;9.60;99.90;;;;;;4420034;32;20521;-58
2024/02/16 02:07:27;;;;;;;1.30;0.77;;;9.60;99.90;;;;;;4418011;32;20145;-58
2024/02/16 02:09:53;;;;;;;1.20;1.02;;;9.60;99.90;;;;;;4428318;32;20141;-58
2024/02/16 02:12:18;;;;;;;0.70;0.70;;;9.60;99.90;;;;;;4426479;32;20716;-59
2024/02/16 02:14:44;;;;;;;2.50;1.67;;;9.60;99.90;;;;;;4426887;32;20053;-59
2024/02/16 02:17:10;;;;;;;0.70;0.70;;;9.60;99.90;;;;;;4428680;32;20135;-59
2024/02/16 02:19:35;;;;;;;2.67;1.80;;;9.60;99.90;;;;;;4429672;32;20073;-58
2024/02/16 02:22:01;;;;;;;3.15;0.73;;;9.60;99.90;;;;;;4429964;32;20070;-63
2024/02/16 02:24:27;;;;;;;1.25;0.93;;;9.50;99.90;;;;;;4423245;32;20493;-57
2024/02/16 02:26:52;;;;;;;1.02;0.88;;;9.50;99.90;;;;;;4413580;32;20527;-58
2024/02/16 02:29:18;;;;;;;0.80;0.80;;;9.50;99.90;;;;;;4426792;32;20057;-57
2024/02/16 02:31:43;;;;;;;0.80;0.80;;;9.50;99.90;;;;;;4426824;32;20532;-56
2024/02/16 02:34:10;;;;;;;2.83;1.35;;;9.50;99.90;;;;;;4429274;32;20069;-58
2024/02/16 02:36:35;;;;;;;1.65;1.00;;;9.40;99.90;;;;;;4432311;32;20089;-58
2024/02/16 02:39:01;;;;;;;1.37;1.25;;;9.40;99.90;;;;;;4428277;32;20455;-58
2024/02/16 02:41:26;;;;;;;1.42;1.33;;;9.40;99.90;;;;;;4401780;32;20295;-57
2024/02/16 02:43:52;;;;;;;0.90;0.88;;;9.40;99.90;;;;;;4424763;32;20547;-56
2024/02/16 02:46:18;;;;;;;0.60;0.60;;;9.40;99.90;;;;;;4425970;32;20065;-57
2024/02/16 02:48:45;;;;;;;1.25;1.15;;;9.40;99.90;;;;;;4418505;32;20398;-57
2024/02/16 02:51:11;;;;;;;2.10;0.90;;;9.40;99.90;;;;;;4405314;32;20125;-58
2024/02/16 02:53:36;;;;;;;1.67;1.17;;;9.40;99.90;;;;;;4415313;32;20936;-58
2024/02/16 02:56:02;;;;;;;2.90;1.25;;;9.40;99.90;;;;;;4429646;32;20445;-58
2024/02/16 02:58:28;;;;;;;0.80;0.80;;;9.40;99.90;;;;;;4423831;32;20521;-58
2024/02/16 03:00:54;;;;;;;1.23;1.00;;;9.40;99.90;;;;;;4420021;32;20085;-58
2024/02/16 03:03:20;;;;;;;1.00;0.90;;;9.40;99.90;;;;;;4427506;32;20080;-58
2024/02/16 03:05:46;;;;;;;0.80;0.80;;;9.50;99.90;;;;;;4430188;32;20057;-57
2024/02/16 03:08:11;;;;;;;2.83;1.55;;;9.50;99.90;;;;;;4420260;32;20077;-57
2024/02/16 03:10:37;;;;;;;9.95;0.80;;;9.50;99.90;;;;;;4429805;32;20124;-57
2024/02/16 03:13:03;;;;;;;5.95;1.75;;;9.50;99.90;;;;;;4428296;32;20438;-57
2024/02/16 03:15:30;;;;;;;1.37;1.27;;;9.50;99.90;;;;;;4419071;32;20119;-58
2024/02/16 03:17:55;;;;;;;0.62;0.62;;;9.50;99.90;;;;;;4425581;32;20112;-58
2024/02/16 03:20:21;;;;;;;1.62;1.27;;;9.50;99.90;;;;;;4426446;32;20392;-57
2024/02/16 03:22:48;;;;;;;1.45;1.35;;;9.50;99.90;;;;;;4427131;32;20070;-57
2024/02/16 03:25:13;;;;;;;1.12;1.02;;;9.50;99.90;;;;;;4427623;32;20445;-58
2024/02/16 03:27:39;;;;;;;1.73;1.25;;;9.50;99.90;;;;;;4429369;32;20078;-56
2024/02/16 03:30:05;;;;;;;1.67;0.80;;;9.50;99.90;;;;;;4419884;32;20073;-58
2024/02/16 03:32:31;;;;;;;1.45;0.93;;;9.50;99.90;;;;;;4426738;32;20069;-58
2024/02/16 03:34:58;;;;;;;5.93;1.25;;;9.40;99.90;;;;;;4420664;32;20288;-57
2024/02/16 03:37:24;;;;;;;5.53;2.45;;;9.50;99.90;;;;;;4409022;32;20459;-56
2024/02/16 03:39:49;;;;;;;6.30;2.05;;;9.50;99.90;;;;;;4426244;32;20062;-57
2024/02/16 03:42:15;;;;;;;0.70;0.70;;;9.50;99.90;;;;;;4425448;32;20453;-58
2024/02/16 03:44:41;;;;;;;1.27;1.17;;;9.50;99.90;;;;;;4420952;32;20158;-58
2024/02/16 03:47:08;;;;;;;0.95;0.95;;;9.50;99.90;;;;;;4426670;32;20108;-55
2024/02/16 03:49:34;;;;;;;1.23;1.05;;;9.50;99.90;;;;;;4427462;32;20073;-57
2024/02/16 03:51:59;;;;;;;2.12;1.23;;;9.60;99.90;;;;;;4418098;32;20069;-57
2024/02/16 03:54:25;;;;;;;0.70;0.70;;;9.60;99.90;;;;;;4428881;32;20068;-57
2024/02/16 03:56:53;;;;;;;1.77;1.12;;;9.60;99.90;;;;;;4429829;32;20065;-57
2024/02/16 03:59:19;;;;;;;22.37;1.12;;;9.70;99.90;;;;;;4426859;32;20435;-58
2024/02/16 04:01:45;;;;;;;1.00;0.90;;;9.60;99.90;;;;;;4421881;32;20078;-57
2024/02/16 04:04:10;;;;;;;2.45;1.50;;;9.60;99.90;;;;;;4427553;32;20174;-58
2024/02/16 04:06:36;;;;;;;1.20;1.10;;;9.60;99.90;;;;;;4426581;32;20124;-57
2024/02/16 04:09:02;;;;;;;0.60;0.60;;;9.50;99.90;;;;;;4426669;32;20074;-57
2024/02/16 04:11:29;;;;;;;7.72;1.95;;;9.50;99.90;;;;;;4424592;32;20092;-57
2024/02/16 04:13:54;;;;;;;0.50;0.50;;;9.50;99.90;;;;;;4426379;32;20057;-58
2024/02/16 04:16:22;;;;;;;0.55;0.55;;;9.50;99.90;;;;;;4429016;32;20127;-57
2024/02/16 04:18:47;;;;;;;2.15;1.23;;;9.50;99.90;;;;;;4426718;32;20074;-55
2024/02/16 04:21:13;;;;;;;0.95;0.95;;;9.50;99.90;;;;;;4427672;32;20105;-57
2024/02/16 04:23:38;;;;;;;0.88;0.88;;;9.50;99.90;;;;;;4426237;32;20134;-58
2024/02/16 04:26:06;;;;;;;1.73;1.23;;;9.50;99.90;;;;;;4424603;32;20120;-57
2024/02/16 04:28:32;;;;;;;0.77;0.77;;;9.50;99.90;;;;;;4417321;32;20057;-58
2024/02/16 04:30:57;;;;;;;1.35;1.02;;;9.50;99.90;;;;;;4428951;32;20164;-61
2024/02/16 04:33:23;;;;;;;2.05;1.52;;;9.50;99.90;;;;;;4416961;32;20139;-56
2024/02/16 04:35:50;;;;;;;1.65;0.77;;;9.50;99.90;;;;;;4429719;32;20080;-57
2024/02/16 04:38:16;;;;;;;0.52;0.52;;;9.50;99.90;;;;;;4427977;32;20115;-58
2024/02/16 04:40:42;;;;;;;1.80;0.90;;;9.50;99.90;;;;;;4429398;32;20138;-59
2024/02/16 04:43:07;;;;;;;0.85;0.85;;;9.40;99.90;;;;;;4426115;32;20069;-57
2024/02/16 04:45:33;;;;;;;0.60;0.60;;;9.40;99.90;;;;;;4427569;32;20077;-58
2024/02/16 04:48:05;;;;;;;0.50;0.50;;;9.40;99.90;;;;;;4428775;32;20472;-58
2024/02/16 04:50:33;;;;;;;1.08;1.02;;;9.40;99.90;;;;;;4418311;32;20512;-59
2024/02/16 04:52:58;;;;;;;0.88;0.77;;;9.40;99.90;;;;;;4401632;32;20106;-59
2024/02/16 04:55:24;;;;;;;1.75;0.95;;;9.40;99.90;;;;;;4426310;32;20420;-58
2024/02/16 04:57:49;;;;;;;1.08;1.00;;;9.40;99.90;;;;;;4418857;32;20061;-58
2024/02/16 05:00:15;;;;;;;0.50;0.50;;;9.40;99.90;;;;;;4416424;32;20053;-57
2024/02/16 05:02:40;;;;;;;2.00;0.90;;;9.40;99.90;;;;;;4423853;32;20073;-58
2024/02/16 05:05:06;;;;;;;7.30;1.27;;;9.40;99.90;;;;;;4426123;32;20421;-57
2024/02/16 05:07:33;;;;;;;1.55;1.30;;;9.40;99.90;;;;;;4424196;32;20100;-58
2024/02/16 05:09:59;;;;;;;1.05;0.93;;;9.40;99.90;;;;;;4416976;32;20481;-57
2024/02/16 05:12:26;;;;;;;1.12;1.05;;;9.40;99.90;;;;;;4424951;32;20124;-58
2024/02/16 05:14:52;;;;;;;1.40;1.25;;;9.40;99.90;;;;;;4425153;32;21006;-58
2024/02/16 05:17:18;;;;;;;1.55;0.93;;;9.40;99.90;;;;;;4426250;32;20473;-58
2024/02/16 05:19:44;;;;;;;2.47;1.98;;;9.40;99.90;;;;;;4424592;32;20119;-59
2024/02/16 05:22:09;;;;;;;1.10;1.10;;;9.30;99.90;;;;;;4408644;32;20108;-57
2024/02/16 05:24:35;;;;;;;4.32;1.25;;;9.30;99.90;;;;;;4414259;32;20094;-59
2024/02/16 05:27:01;;;;;;;61.33;1.48;;;9.40;99.90;;;;;;4428016;32;20074;-59
2024/02/16 05:29:26;;;;;;;1.12;0.85;;;9.40;99.90;;;;;;4427777;32;20089;-59
2024/02/16 05:31:52;;;;;;;0.85;0.85;;;9.30;99.90;;;;;;4416327;32;20076;-59
2024/02/16 05:34:18;;;;;;;0.75;0.75;;;9.20;99.90;;;;;;4425961;32;20517;-59
2024/02/16 05:36:44;;;;;;;0.62;0.62;;;9.30;99.90;;;;;;4413490;32;20061;-59
2024/02/16 05:39:26;;;;;;;1.15;0.80;;;9.20;99.90;;;;;;4420804;32;20868;-58
2024/02/16 05:41:53;;;;;;;0.80;0.80;;;9.10;99.90;;;;;;4414150;32;20572;-58
2024/02/16 05:44:19;;;;;;;0.82;0.80;;;9.20;99.90;;;;;;4424586;32;20077;-58
2024/02/16 05:46:45;;;;;;;0.82;0.82;;;9.10;99.90;;;;;;4412404;32;20081;-58
2024/02/16 05:49:11;;;;;;;1.95;0.70;;;9.00;99.90;;;;;;4427335;32;20441;-58
2024/02/16 05:51:39;;;;;;;2.45;1.48;;;9.00;99.90;;;;;;4422324;32;20064;-59
2024/02/16 05:54:04;;;;;;;1.10;0.88;;;9.00;99.90;;;;;;4407137;32;20077;-59
2024/02/16 05:56:33;;;;;;;0.68;0.68;;;9.00;99.90;;;;;;4396798;32;20081;-58
2024/02/16 05:59:00;;;;;;;2.05;1.15;;;9.00;99.90;;;;;;4420306;32;20509;-57
2024/02/16 06:01:27;;;;;;;1.05;0.80;;;9.10;99.90;;;;;;4420596;32;20074;-57
2024/02/16 06:03:53;;;;;;;2.53;1.60;;;9.10;99.90;;;;;;4410268;32;20523;-58
2024/02/16 06:06:18;;;;;;;28.95;1.33;;;9.00;99.90;;;;;;4412408;32;20085;-58
2024/02/16 06:08:44;;;;;;;3.33;2.25;;;9.00;99.90;;;;;;4408891;32;21070;-59
2024/02/16 06:11:09;;;;;;;0.90;0.80;;;8.90;99.90;;;;;;4428150;32;20070;-59
2024/02/16 06:13:35;;;;;;;1.42;1.08;;;8.90;99.90;;;;;;4405890;32;20342;-58
2024/02/16 06:16:00;;;;;;;2.62;1.42;;;8.90;99.90;;;;;;4419743;32;20076;-59
2024/02/16 06:18:29;;;;;;;1.23;0.75;;;8.90;99.90;;;;;;4423158;32;20111;-59
2024/02/16 06:20:55;;;;;;;1.55;1.15;;;8.90;99.90;;;;;;4407696;32;20513;-57
2024/02/16 06:23:20;;;;;;;0.68;0.68;;;9.00;99.90;;;;;;4414052;32;20073;-57
2024/02/16 06:25:46;;;;;;;0.85;0.85;;;8.90;99.90;;;;;;4409746;32;20118;-57
2024/02/16 06:28:11;;;;;;;1.08;0.98;;;8.90;99.90;;;;;;4401640;32;20541;-57
2024/02/16 06:30:37;;;;;;;1.15;0.95;;;8.90;99.90;;;;;;4415689;32;20178;-57
2024/02/16 06:33:02;;;;;;;1.67;1.10;;;8.90;99.90;;;;;;4404409;32;20066;-57
2024/02/16 06:35:29;;;;;;;1.98;1.20;;;9.00;99.90;;;;;;4415636;32;20061;-65
2024/02/16 06:37:55;;;;;;;3.03;0.98;;;9.00;99.90;;;;;;4415627;32;20069;-60
2024/02/16 06:40:21;;;;;;;1.52;1.40;;;9.00;99.90;;;;;;4418297;32;20957;-58
2024/02/16 06:42:46;;;;;;;0.80;0.80;;;9.00;99.90;;;;;;4411981;32;20070;-58
2024/02/16 06:45:12;;;;;;;0.57;0.57;;;9.10;99.90;;;;;;4408940;32;20085;-59
2024/02/16 06:47:37;;;;;;;1.25;1.17;;;9.10;99.90;;;;;;4383605;32;20097;-59
2024/02/16 06:50:03;;;;;;;0.50;0.50;;;9.20;99.90;;;;;;4407658;32;20108;-58
2024/02/16 06:52:28;;;;;;;2.35;1.00;;;9.20;99.90;;;;;;4404623;32;20677;-60
2024/02/16 06:54:54;;;;;;;0.65;0.65;;;9.20;99.90;;;;;;4404016;32;20089;-60
2024/02/16 06:57:20;;;;;;;1.98;1.10;;;9.20;99.90;;;;;;4377870;32;20931;-60
2024/02/16 06:59:46;;;;;;;20.80;1.55;;;9.20;99.90;;;;;;4387415;32;20208;-60
2024/02/16 07:02:12;;;;;;;0.88;0.80;;;9.20;99.90;;;;;;4368106;32;20082;-60
2024/02/16 07:04:40;;;;;;;1.00;0.77;;;9.10;99.90;;;;;;4381878;32;20291;-60
2024/02/16 07:07:06;;;;;;;3.70;0.98;;;9.20;99.90;;;;;;4400091;32;20785;-60
2024/02/16 07:09:32;;;;;;;0.77;0.77;;;9.20;99.90;;;;;;4402798;32;20514;-60
2024/02/16 07:11:58;;;;;;;1.23;1.02;;;9.20;99.90;;;;;;4403202;32;20082;-59
2024/02/16 07:14:24;;;;;;;0.70;0.70;;;9.30;99.90;;;;;;4384381;32;20074;-59
2024/02/16 07:16:49;;;;;;;0.73;0.73;;;9.40;99.90;;;;;;4396229;32;20116;-60
2024/02/16 07:19:15;;;;;;;0.95;0.95;;;9.50;99.90;;;;;;4393365;32;20077;-59
2024/02/16 07:21:41;;;;;;;1.87;0.95;;;9.50;99.90;;;;;;4380863;32;20110;-59
2024/02/16 07:24:06;;;;;;;0.57;0.57;;;9.50;99.90;;;;;;4395239;32;20596;-58
2024/02/16 07:26:33;;;;;;;1.75;1.08;;;9.50;99.90;;;;;;4395972;32;20603;-58
2024/02/16 07:28:58;;;;;;;2.47;1.10;;;9.60;99.90;;;;;;4390592;32;20089;-58
2024/02/16 07:31:24;;;;;;;0.60;0.60;;;9.50;99.90;;;;;;4393212;32;20090;-59
2024/02/16 07:33:49;;;;;;;1.42;1.10;;;9.60;99.90;;;;;;4381169;32;20074;-58
2024/02/16 07:36:17;;;;;;;1.33;1.17;;;9.60;99.90;;;;;;4397141;32;20073;-59
2024/02/16 07:38:43;;;;;;;3.70;1.27;;;9.70;99.90;;;;;;4394683;32;20442;-63
2024/02/16 07:41:09;;;;;;;1.55;1.45;;;9.70;99.90;;;;;;4397733;32;20167;-61
2024/02/16 07:43:35;;;;;;;6.28;1.02;;;9.70;99.90;;;;;;4393624;32;20461;-60
2024/02/16 07:46:00;;;;;;;0.62;0.62;;;9.70;99.90;;;;;;4391600;32;20127;-61
2024/02/16 07:48:26;;;;;;;1.30;1.20;;;9.80;99.90;;;;;;4391163;32;20575;-61
2024/02/16 07:50:51;;;;;;;2.75;0.70;;;9.80;99.90;;;;;;4389778;32;20133;-61
2024/02/16 07:53:17;;;;;;;0.73;0.60;;;9.90;99.90;;;;;;4395096;32;20106;-59
2024/02/16 07:55:43;;;;;;;0.40;0.40;;;10.00;99.90;;;;;;4388978;32;20105;-62
2024/02/16 07:58:09;;;;;;;0.90;0.90;;;10.10;99.90;;;;;;4398525;32;20140;-59
2024/02/16 08:00:34;;;;;;;1.23;1.15;;;10.20;99.90;;;;;;4395361;32;20078;-60
2024/02/16 08:03:00;;;;;;;0.75;0.70;;;10.20;99.90;;;;;;4377978;32;20152;-60
2024/02/16 08:05:26;;;;;;;0.82;0.82;;;10.40;99.90;;;;;;4392068;32;20093;-59
2024/02/16 08:07:53;;;;;;;0.45;0.45;;;10.50;99.90;;;;;;4397840;32;20127;-59
2024/02/16 08:10:21;;;;;;;0.90;0.90;;;10.60;99.90;;;;;;4396397;32;20093;-60
2024/02/16 08:12:46;;;;;;;0.82;0.73;;;10.70;99.90;;;;;;4399804;32;20081;-60
2024/02/16 08:15:12;;;;;;;0.85;0.85;;;10.80;99.90;;;;;;4375608;32;20184;-60
2024/02/16 08:17:39;;;;;;;0.52;0.52;;;10.80;99.90;;;;;;4379405;32;20254;-59
2024/02/16 08:20:05;;;;;;;0.70;0.70;;;10.90;99.90;;;;;;4389217;32;21008;-61
2024/02/16 08:22:32;;;;;;;11.20;1.50;;;11.00;99.90;;;;;;4374706;32;20097;-61
2024/02/16 08:24:58;;;;;;;0.60;0.60;;;11.10;99.90;;;;;;4390513;32;21584;-60
2024/02/16 08:27:24;;;;;;;1.98;0.85;;;11.20;99.90;;;;;;4398274;32;20058;-60
2024/02/16 08:29:51;;;;;;;9.13;1.90;;;11.20;99.90;;;;;;4386375;32;20151;-60
2024/02/16 08:32:17;;;;;;;1.58;0.80;;;11.20;99.90;;;;;;4381397;32;20274;-58
2024/02/16 08:34:43;;;;;;;0.75;0.75;;;11.30;99.90;;;;;;4382434;32;20149;-61
2024/02/16 08:37:09;;;;;;;1.17;0.98;;;11.30;99.90;;;;;;4381278;32;20112;-61
2024/02/16 08:39:37;;;;;;;0.50;0.50;;;11.30;99.90;;;;;;4371882;32;20554;-61
2024/02/16 08:42:03;;;;;;;0.80;0.80;;;11.40;99.90;;;;;;4395137;32;21345;-63
2024/02/16 08:44:29;;;;;;;5.32;1.90;;;11.40;99.90;;;;;;4397085;32;20321;-60
2024/02/16 08:46:55;;;;;;;0.95;0.95;;;11.50;99.90;;;;;;4398893;32;20111;-60
2024/02/16 08:49:20;;;;;;;1.02;0.93;;;11.60;99.90;;;;;;4384693;32;20230;-60
2024/02/16 08:51:47;;;;;;;1.30;0.82;;;11.60;99.90;;;;;;4355966;32;21035;-60
2024/02/16 08:54:13;;;;;;;0.75;0.75;;;11.70;99.90;;;;;;4389407;32;20128;-59
2024/02/16 08:56:39;;;;;;;0.60;0.60;;;11.60;99.90;;;;;;4392480;32;20077;-61
2024/02/16 08:59:05;;;;;;;0.70;0.70;;;11.70;99.90;;;;;;4385218;32;20360;-58
2024/02/16 09:01:36;;;;;;;2.42;1.00;;;11.70;99.90;;;;;;4381373;32;20140;-60
2024/02/16 09:04:02;;;;;;;1.15;0.93;;;11.80;99.90;;;;;;4359338;32;20101;-59
2024/02/16 09:06:28;;;;;;;1.23;0.80;;;11.70;99.90;;;;;;4381842;32;20088;-60
2024/02/16 09:08:54;;;;;;;0.95;0.90;;;11.80;99.90;;;;;;4385970;32;20702;-58
2024/02/16 09:11:20;;;;;;;13.05;1.30;;;11.80;99.90;;;;;;4374005;32;20097;-59
2024/02/16 09:13:46;;;;;;;1.08;0.60;;;11.90;99.90;;;;;;4379382;32;20148;-59
2024/02/16 09:16:11;;;;;;;2.75;1.30;;;12.00;99.90;;;;;;4364797;32;20113;-61
2024/02/16 09:18:37;;;;;;;0.70;0.70;;;12.10;99.90;;;;;;4388339;32;20482;-58
2024/02/16 09:21:03;;;;;;;0.50;0.50;;;12.20;99.90;;;;;;4388557;32;20209;-57
2024/02/16 09:23:29;;;;;;;0.60;0.60;;;12.30;99.90;;;;;;4354232;32;20694;-59
2024/02/16 09:25:55;;;;;;;0.60;0.60;;;12.40;99.90;;;;;;4388539;32;20093;-61
2024/02/16 09:28:21;;;;;;;7.75;1.50;;;12.50;99.90;;;;;;4389041;32;20772;-59
2024/02/16 09:30:47;;;;;;;1.30;1.12;;;12.50;99.90;;;;;;4386980;32;20106;-59
2024/02/16 09:33:13;;;;;;;1.90;0.90;;;12.60;99.90;;;;;;4374264;32;20228;-59
2024/02/16 09:35:39;;;;;;;0.50;0.50;;;12.70;99.90;;;;;;4377781;32;20085;-59
2024/02/16 09:38:05;;;;;;;0.60;0.60;;;12.80;99.90;;;;;;4393027;32;20105;-59
2024/02/16 09:40:30;;;;;;;2.37;1.12;;;12.80;99.90;;;;;;4389685;32;20520;-59
2024/02/16 09:42:56;;;;;;;0.80;0.80;;;12.80;99.90;;;;;;4395234;32;20765;-59
2024/02/16 09:45:24;;;;;;;0.50;0.50;;;12.80;99.90;;;;;;4396989;32;20616;-58
2024/02/16 09:47:51;;;;;;;0.45;0.45;;;12.90;99.90;;;;;;4404335;32;21243;-58
2024/02/16 09:50:17;;;;;;;0.70;0.70;;;12.90;99.90;;;;;;4383629;32;20077;-58
2024/02/16 09:52:48;;;;;;;0.55;0.55;;;13.00;99.90;;;;;;4397493;32;20070;-57
2024/02/16 09:55:14;;;;;;;0.50;0.50;;;13.00;99.90;;;;;;4395358;32;20248;-57
2024/02/16 09:57:40;;;;;;;0.62;0.62;;;13.00;99.90;;;;;;4390749;32;20101;-58
2024/02/16 10:00:06;;;;;;;0.50;0.50;;;13.10;99.90;;;;;;4392569;32;20073;-59
2024/02/16 10:04:57;;;;;;;0.50;0.50;;;13.10;99.90;;;;;;4389943;32;20273;-58
2024/02/16 10:07:31;;;;;;;0.60;0.60;;;13.20;99.90;;;;;;4399563;32;20061;-57
2024/02/16 10:09:57;;;;;;;0.47;0.47;;;13.20;99.90;;;;;;4405352;32;20258;-58
2024/02/16 10:12:22;;;;;;;0.77;0.77;;;13.20;99.90;;;;;;4397925;32;20794;-59
2024/02/16 10:14:56;;;;;;;0.50;0.50;;;13.20;99.90;;;;;;4390895;32;20072;-59
2024/02/16 10:17:21;;;;;;;0.60;0.60;;;13.30;99.90;;;;;;4397077;32;20359;-59
2024/02/16 10:19:56;;;;;;;0.50;0.50;;;13.30;99.90;;;;;;4394515;32;20859;-59
2024/02/16 10:22:22;;;;;;;0.70;0.70;;;13.30;99.90;;;;;;4377043;32;20466;-58
2024/02/16 10:24:50;;;;;;;0.68;0.68;;;13.40;99.90;;;;;;4391932;32;21393;-57
2024/02/16 10:27:16;;;;;;;11.48;2.03;;;13.40;99.90;;;;;;4395887;32;20623;-59
2024/02/16 10:29:45;;;;;;;0.50;0.50;;;13.40;99.90;;;;;;4374753;32;20581;-59
2024/02/16 10:32:12;;;;;;;0.85;0.85;;;13.40;99.90;;;;;;4377229;32;20110;-59
2024/02/16 10:34:40;;;;;;;0.55;0.55;;;13.40;99.90;;;;;;4363101;32;20093;-59
2024/02/16 10:37:07;;;;;;;0.50;0.50;;;13.40;99.90;;;;;;4380449;32;20057;-61
2024/02/16 10:39:33;;;;;;;0.82;0.80;;;13.40;99.90;;;;;;4384652;32;20077;-59
2024/02/16 10:42:01;;;;;;;0.70;0.70;;;13.50;99.90;;;;;;4390703;32;20077;-61
2024/02/16 10:44:28;;;;;;;1.40;0.55;;;13.50;99.90;;;;;;4361849;32;20113;-60
2024/02/16 10:46:56;;;;;;;0.80;0.80;;;13.60;99.90;;;;;;4377624;32;20101;-61
2024/02/16 10:49:23;;;;;;;0.60;0.60;;;13.60;99.90;;;;;;4374125;32;20070;-60
2024/02/16 10:51:55;;;;;;;0.60;0.60;;;13.60;99.90;;;;;;4379491;32;20093;-60
2024/02/16 10:54:27;;;;;;;1.85;0.73;;;13.60;99.90;;;;;;4384426;32;20504;-60
2024/02/16 10:56:54;;;;;;;0.50;0.50;;;13.70;99.90;;;;;;4375696;32;20873;-58
2024/02/16 10:59:19;;;;;;;0.98;0.98;;;13.70;99.90;;;;;;4375180;32;20109;-61
2024/02/16 11:04:15;;;;;;;0.50;0.50;;;13.80;99.90;;;;;;4391720;32;20101;-59
2024/02/16 11:06:59;;;;;;;0.62;0.62;;;13.80;99.90;;;;;;4378157;32;20205;-58
2024/02/16 11:09:27;;;;;;;0.75;0.75;;;13.90;99.90;;;;;;4368894;32;20117;-57
2024/02/16 11:11:55;;;;;;;1.05;0.95;;;13.90;99.90;;;;;;4392583;32;21309;-58
2024/02/16 11:14:23;;;;;;;3.20;0.73;;;14.10;99.90;;;;;;4385915;32;20069;-56
2024/02/16 11:16:49;;;;;;;1.08;0.98;;;14.20;99.90;;;;;;4380206;32;20588;-59
2024/02/16 11:19:16;;;;;;;0.70;0.70;;;14.20;99.90;;;;;;4374794;32;20101;-59
2024/02/16 11:21:56;;;;;;;1.15;1.00;;;14.40;99.90;;;;;;4395486;32;20089;-60
2024/02/16 11:24:32;;;;;;;1.08;0.80;;;14.60;99.90;;;;;;4370533;32;20101;-59
2024/02/16 11:26:57;;;;;;;0.55;0.55;;;14.70;99.90;;;;;;4404118;32;20477;-59
2024/02/16 11:29:25;;;;;;;1.85;1.00;;;14.80;99.90;;;;;;4373234;32;20073;-60
2024/02/16 11:31:50;;;;;;;0.50;0.50;;;14.90;99.90;;;;;;4405874;32;20086;-60
2024/02/16 11:34:25;;;;;;;0.55;0.55;;;15.10;99.90;;;;;;4409623;32;20461;-65
2024/02/16 11:36:53;;;;;;;0.60;0.60;;;15.30;99.90;;;;;;4399937;32;20132;-60
2024/02/16 11:39:19;;;;;;;0.93;0.88;;;15.30;99.90;;;;;;4410433;32;20586;-59
2024/02/16 11:41:45;;;;;;;0.52;0.52;;;15.40;99.90;;;;;;4410999;32;20542;-59
2024/02/16 11:44:13;;;;;;;0.60;0.60;;;15.40;99.90;;;;;;4413577;32;20706;-59
2024/02/16 11:46:38;;;;;;;0.50;0.50;;;15.50;99.90;;;;;;4412956;32;20486;-60
2024/02/16 11:49:06;;;;;;;0.75;0.50;;;15.60;99.90;;;;;;4398872;32;20097;-61
2024/02/16 11:51:32;;;;;;;1.70;0.83;;;16.00;99.90;;;;;;4403898;32;122873;-60
2024/02/16 11:53:59;;;;;;;2.17;1.23;;;16.30;99.90;;;;;;4399657;32;20093;-61
2024/02/16 11:56:25;;;;;;;1.52;0.62;;;16.50;99.90;;;;;;4381375;32;21553;-61
2024/02/16 11:58:51;;;;;;;0.57;0.57;;;16.40;99.90;;;;;;4353853;32;26105;-59
2024/02/16 12:01:17;;;;;;;0.85;0.85;;;16.40;99.90;;;;;;4386878;32;20168;-60
2024/02/16 12:03:42;;;;;;;0.47;0.47;;;16.20;99.90;;;;;;4391012;32;20942;-61
2024/02/16 12:06:08;;;;;;;0.88;0.77;;;16.00;99.90;;;;;;4368016;32;20093;-58
2024/02/16 12:08:34;;;;;;;0.75;0.75;;;15.90;99.90;;;;;;4377838;32;20085;-60
2024/02/16 12:11:00;;;;;;;0.70;0.70;;;15.80;99.90;;;;;;4392710;32;21142;-64
2024/02/16 12:13:26;;;;;;;0.80;0.68;;;15.80;99.90;;;;;;4380854;32;20081;-61
2024/02/16 12:15:52;;;;;;;0.40;0.40;;;15.70;99.90;;;;;;4383472;32;20102;-59
2024/02/16 12:18:20;;;;;;;0.50;0.50;;;15.80;99.90;;;;;;4387710;32;20943;-60
2024/02/16 12:21:00;;;;;;;0.45;0.45;;;15.70;99.90;;;;;;4389881;32;20653;-60
2024/02/16 12:23:25;;;;;;;0.65;0.65;;;15.90;99.90;;;;;;4371967;32;20895;-59
2024/02/16 12:25:51;;;;;;;0.40;0.40;;;16.20;99.90;;;;;;4390231;32;20104;-59
2024/02/16 12:28:16;;;;;;;3.10;0.70;;;16.70;99.90;;;;;;4374186;32;20081;-60
2024/02/16 12:30:42;;;;;;;0.70;0.60;;;17.40;99.90;;;;;;4390637;32;20687;-61
2024/02/16 12:33:07;;;;;;;0.20;0.20;;;17.70;99.90;;;;;;4383540;32;20247;-61
2024/02/16 12:35:34;;;;;;;0.62;0.62;;;18.10;99.90;;;;;;4377309;32;20449;-61
2024/02/16 12:38:00;;;;;;;0.37;0.37;;;18.40;99.90;;;;;;4392338;32;20986;-61
2024/02/16 12:40:26;;;;;;;0.30;0.30;;;18.70;99.90;;;;;;4363196;32;20617;-62
2024/02/16 12:42:52;;;;;;;150.25;4.00;;;18.70;99.90;;;;;;4366702;32;20126;-62
2024/02/16 12:45:17;;;;;;;0.45;0.45;;;18.50;99.90;;;;;;4382078;32;20088;-60
2024/02/16 12:47:43;;;;;;;0.28;0.28;;;18.20;99.90;;;;;;4390264;32;20155;-61
2024/02/16 12:50:08;;;;;;;0.30;0.30;;;17.80;99.90;;;;;;4399723;32;20121;-60
2024/02/16 12:52:38;;;;;;;0.40;0.40;;;17.40;99.90;;;;;;4396588;32;20102;-60
2024/02/16 12:55:05;;;;;;;0.37;0.37;;;17.10;99.90;;;;;;4396532;32;21116;-60